createdAt,value
2022-08-05T00:00:48.436Z,26.40
2022-08-05T00:06:05.582Z,26.20
2022-08-05T00:11:24.007Z,26.40
2022-08-05T00:16:36.290Z,26.10
2022-08-05T00:21:38.483Z,26.00
2022-08-05T00:26:50.761Z,25.80
2022-08-05T00:32:12.724Z,25.90
2022-08-05T00:37:15.976Z,25.80
2022-08-05T00:42:32.030Z,25.60
2022-08-05T00:47:55.975Z,25.60
2022-08-05T00:52:56.297Z,25.40
2022-08-05T00:57:59.307Z,25.50
2022-08-05T01:03:01.098Z,25.50
2022-08-05T01:08:30.812Z,25.30
2022-08-05T01:13:57.382Z,25.00
2022-08-05T01:18:56.235Z,25.00
2022-08-05T01:24:01.376Z,25.10
2022-08-05T01:29:23.023Z,25.10
2022-08-05T01:34:27.121Z,24.90
2022-08-05T01:39:45.637Z,24.80
2022-08-05T01:44:53.949Z,24.80
2022-08-05T01:50:01.826Z,24.80
2022-08-05T01:55:07.197Z,25.00
2022-08-05T02:00:12.062Z,24.70
2022-08-05T02:05:14.961Z,24.60
2022-08-05T02:10:17.646Z,24.30
2022-08-05T02:15:22.880Z,24.40
2022-08-05T02:20:26.486Z,24.50
2022-08-05T02:25:33.126Z,24.20
2022-08-05T02:30:56.541Z,24.10
2022-08-05T02:36:01.211Z,24.00
2022-08-05T02:41:06.414Z,24.00
2022-08-05T02:46:22.337Z,24.10
2022-08-05T02:52:03.122Z,24.10
2022-08-05T02:56:51.811Z,24.10
2022-08-05T03:01:58.167Z,24.00
2022-08-05T03:07:00.512Z,23.90
2022-08-05T03:12:02.195Z,23.90
2022-08-05T03:17:08.739Z,23.70
2022-08-05T03:22:16.751Z,23.80
2022-08-05T03:27:20.773Z,23.70
2022-08-05T03:32:30.887Z,23.60
2022-08-05T03:37:45.709Z,23.60
2022-08-05T03:42:51.753Z,23.50
2022-08-05T03:47:57.006Z,23.60
2022-08-05T03:55:07.023Z,23.60
2022-08-05T03:58:29.191Z,23.50
2022-08-05T04:03:36.021Z,23.30
2022-08-05T04:08:39.829Z,23.40
2022-08-05T04:13:50.406Z,23.20
2022-08-05T04:18:54.384Z,23.10
2022-08-05T04:24:06.759Z,23.20
2022-08-05T04:29:10.669Z,23.10
2022-08-05T04:34:31.129Z,22.90
2022-08-05T04:39:35.391Z,22.90
2022-08-05T04:44:37.590Z,23.00
2022-08-05T04:50:01.566Z,23.00
2022-08-05T04:55:13.849Z,23.00
2022-08-05T05:00:16.944Z,23.00
2022-08-05T05:05:28.933Z,22.80
2022-08-05T05:10:33.224Z,23.10
2022-08-05T05:15:57.847Z,23.20
2022-08-05T05:20:56.996Z,23.00
2022-08-05T05:26:00.351Z,23.00
2022-08-05T05:31:02.328Z,23.00
2022-08-05T05:36:07.609Z,23.10
2022-08-05T05:41:09.368Z,23.20
2022-08-05T05:46:17.698Z,23.20
2022-08-05T05:51:21.466Z,23.70
2022-08-05T05:56:26.002Z,23.90
2022-08-05T06:01:37.995Z,23.90
2022-08-05T06:06:42.797Z,24.00
2022-08-05T06:11:59.301Z,24.10
2022-08-05T06:17:24.282Z,24.20
2022-08-05T06:22:29.794Z,24.30
2022-08-05T06:28:10.650Z,24.40
2022-08-05T06:32:53.242Z,24.50
2022-08-05T06:37:58.177Z,24.70
2022-08-05T06:43:00.609Z,25.00
2022-08-05T06:48:35.996Z,25.10
2022-08-05T06:53:28.432Z,25.20
2022-08-05T06:58:36.528Z,25.30
2022-08-05T07:03:38.482Z,25.30
2022-08-05T07:08:40.110Z,25.30
2022-08-05T07:14:02.373Z,25.40
2022-08-05T07:19:04.188Z,25.40
2022-08-05T07:24:06.056Z,25.40
2022-08-05T07:29:13.445Z,25.50
2022-08-05T07:34:15.514Z,25.50
2022-08-05T07:39:24.360Z,25.50
2022-08-05T07:44:46.299Z,25.60
2022-08-05T07:49:54.675Z,25.60
2022-08-05T07:54:57.092Z,25.60
2022-08-05T07:59:59.738Z,25.60
2022-08-05T08:05:01.635Z,25.60
2022-08-05T08:10:03.945Z,25.70
2022-08-05T08:15:09.703Z,25.70
2022-08-05T08:20:43.664Z,25.70
2022-08-05T08:26:00.215Z,25.70
2022-08-05T08:31:00.226Z,25.80
2022-08-05T08:36:18.744Z,25.80
2022-08-05T08:41:50.822Z,25.80
2022-08-05T08:46:48.429Z,25.80
2022-08-05T08:52:03.147Z,25.90
2022-08-05T08:57:11.369Z,25.90
2022-08-05T09:02:16.651Z,25.90
2022-08-05T09:07:28.164Z,25.90
2022-08-05T09:12:30.437Z,26.00
2022-08-05T09:17:42.672Z,26.00
2022-08-05T09:23:05.471Z,26.00
2022-08-05T09:28:23.285Z,26.00
2022-08-05T09:33:34.905Z,26.00
2022-08-05T09:38:36.946Z,26.00
2022-08-05T09:43:40.487Z,26.00
2022-08-05T09:48:43.759Z,26.00
2022-08-05T09:54:08.386Z,26.10
2022-08-05T09:59:12.660Z,26.10
2022-08-05T10:04:18.961Z,26.10
2022-08-05T10:09:31.033Z,26.10
2022-08-05T10:14:47.141Z,26.10
2022-08-05T10:20:04.020Z,26.20
2022-08-05T10:25:10.883Z,26.20
2022-08-05T10:31:19.921Z,26.20
2022-08-05T10:35:40.678Z,26.20
2022-08-05T10:40:49.192Z,26.20
2022-08-05T10:45:56.237Z,26.20
2022-08-05T10:51:21.750Z,26.30
2022-08-05T10:56:26.340Z,26.30
2022-08-05T11:01:55.114Z,26.30
2022-08-05T11:07:06.790Z,26.30
2022-08-05T11:12:38.483Z,26.30
2022-08-05T11:17:59.261Z,26.30
2022-08-05T11:23:25.282Z,26.30
2022-08-05T11:28:27.001Z,26.40
2022-08-05T11:33:47.928Z,26.40
2022-08-05T11:38:52.405Z,26.40
2022-08-05T11:44:04.725Z,26.40
2022-08-05T11:49:13.499Z,26.40
2022-08-05T11:54:34.392Z,26.40
2022-08-05T11:59:41.406Z,26.50
2022-08-05T12:04:58.930Z,26.50
2022-08-05T12:10:09.164Z,26.50
2022-08-05T12:15:38.578Z,26.50
2022-08-05T12:20:41.856Z,26.50
2022-08-05T12:25:53.588Z,26.50
2022-08-05T12:30:58.452Z,26.50
2022-08-05T12:36:08.600Z,26.50
2022-08-05T12:41:13.530Z,26.50
2022-08-05T12:46:28.132Z,26.60
2022-08-05T12:52:12.603Z,26.60
2022-08-05T12:56:54.043Z,26.60
2022-08-05T13:02:07.382Z,26.60
2022-08-05T13:07:16.098Z,26.60
2022-08-05T13:12:50.707Z,26.60
2022-08-05T13:17:55.921Z,26.60
2022-08-05T13:23:01.047Z,26.70
2022-08-05T13:28:10.593Z,26.70
2022-08-05T13:33:14.434Z,26.60
2022-08-05T13:38:36.251Z,26.70
2022-08-05T13:43:44.433Z,26.70
2022-08-05T13:48:58.359Z,26.70
2022-08-05T13:54:02.763Z,26.70
2022-08-05T13:59:05.964Z,26.70
2022-08-05T14:04:39.337Z,26.80
2022-08-05T14:09:46.141Z,26.80
2022-08-05T14:14:48.283Z,26.80
2022-08-05T14:19:56.197Z,26.80
2022-08-05T14:25:01.846Z,26.80
2022-08-05T14:30:20.157Z,26.80
2022-08-05T14:35:22.880Z,26.80
2022-08-05T14:40:24.756Z,26.80
2022-08-05T14:45:26.412Z,26.90
2022-08-05T14:50:28.247Z,26.90
2022-08-05T14:55:39.386Z,26.90
2022-08-05T15:00:58.227Z,26.90
2022-08-05T15:06:12.902Z,26.90
2022-08-05T15:11:17.388Z,26.90
2022-08-05T15:16:19.107Z,26.90
2022-08-05T15:21:21.283Z,26.90
2022-08-05T15:26:31.987Z,27.00
2022-08-05T15:31:34.923Z,27.00
2022-08-05T15:36:36.809Z,27.00
2022-08-05T15:41:58.549Z,27.00
2022-08-05T15:47:01.075Z,27.00
2022-08-05T15:52:16.238Z,27.00
2022-08-05T15:57:25.426Z,27.10
2022-08-05T16:02:35.097Z,27.10
2022-08-05T16:07:36.909Z,27.10
2022-08-05T16:12:38.602Z,27.10
2022-08-05T16:17:40.336Z,27.10
2022-08-05T16:22:42.034Z,27.10
2022-08-05T16:27:59.830Z,27.10
2022-08-05T16:33:05.464Z,27.10
2022-08-05T16:38:24.166Z,27.10
2022-08-05T16:43:28.924Z,27.10
2022-08-05T16:48:35.051Z,27.10
2022-08-05T16:54:05.650Z,27.20
2022-08-05T16:59:08.027Z,27.20
2022-08-05T17:04:10.224Z,27.20
2022-08-05T17:09:12.028Z,27.20
2022-08-05T17:14:22.529Z,27.20
2022-08-05T17:19:40.128Z,27.20
2022-08-05T17:24:46.396Z,27.20
2022-08-05T17:30:02.188Z,27.20
2022-08-05T17:35:04.661Z,27.30
2022-08-05T17:40:10.233Z,27.30
2022-08-05T17:45:18.091Z,27.40
2022-08-05T17:50:28.358Z,27.40
2022-08-05T17:55:37.170Z,27.40
2022-08-05T18:00:47.647Z,27.30
2022-08-05T18:05:53.644Z,27.30
2022-08-05T18:10:55.976Z,27.30
2022-08-05T18:15:59.151Z,27.30
2022-08-05T18:21:00.853Z,27.30
2022-08-05T18:26:03.362Z,27.40
2022-08-05T18:31:07.143Z,27.30
2022-08-05T18:36:15.414Z,27.30
2022-08-05T18:41:55.344Z,27.10
2022-08-05T18:46:41.007Z,27.00
2022-08-05T18:52:06.598Z,27.00
2022-08-05T18:57:15.481Z,26.90
2022-08-05T19:02:38.073Z,26.90
2022-08-05T19:07:42.352Z,26.80
2022-08-05T19:12:48.935Z,26.70
2022-08-05T19:18:08.739Z,26.90
2022-08-05T19:24:05.996Z,26.90
2022-08-05T19:28:34.803Z,26.90
2022-08-05T19:33:38.079Z,26.90
2022-08-05T19:38:43.690Z,26.80
2022-08-05T19:44:06.917Z,26.80
2022-08-05T19:49:07.424Z,26.90
2022-08-05T19:54:28.409Z,26.80
2022-08-05T19:59:55.368Z,26.40
2022-08-05T20:04:58.869Z,26.50
2022-08-05T20:10:01.137Z,26.60
2022-08-05T20:15:02.824Z,26.50
2022-08-05T20:20:09.498Z,26.20
2022-08-05T20:25:12.857Z,25.90
2022-08-05T20:30:14.667Z,26.20
2022-08-05T20:35:20.232Z,26.20
2022-08-05T20:40:22.054Z,26.20
2022-08-05T20:45:23.793Z,26.40
2022-08-05T20:50:46.903Z,26.20
2022-08-05T20:55:54.759Z,26.20
2022-08-05T21:00:57.784Z,25.90
2022-08-05T21:06:00.337Z,26.00
2022-08-05T21:11:09.156Z,26.00
2022-08-05T21:16:13.470Z,26.00
2022-08-05T21:21:15.745Z,25.70
2022-08-05T21:26:17.412Z,25.70
2022-08-05T21:31:19.541Z,25.60
2022-08-05T21:36:29.759Z,25.50
2022-08-05T21:41:34.318Z,25.40
2022-08-05T21:46:37.200Z,25.20
2022-08-05T21:52:22.433Z,25.30
2022-08-05T21:57:31.165Z,25.20
2022-08-05T22:02:22.444Z,25.00
2022-08-05T22:07:39.740Z,25.10
2022-08-05T22:12:50.669Z,25.10
2022-08-05T22:17:59.863Z,25.30
2022-08-05T22:23:21.353Z,25.30
2022-08-05T22:28:25.468Z,25.20
2022-08-05T22:33:58.407Z,25.10
2022-08-05T22:38:49.673Z,25.00
2022-08-05T22:43:51.373Z,24.90
2022-08-05T22:48:53.037Z,24.80
2022-08-05T22:53:55.148Z,24.50
2022-08-05T22:58:56.983Z,24.70
2022-08-05T23:03:59.761Z,24.70
2022-08-05T23:09:24.598Z,24.50
2022-08-05T23:14:32.224Z,24.80
2022-08-05T23:19:38.558Z,24.60
2022-08-05T23:24:51.203Z,24.80
2022-08-05T23:29:53.986Z,24.50
2022-08-05T23:34:56.612Z,24.40
2022-08-05T23:39:58.286Z,24.40
2022-08-05T23:45:01.869Z,24.20
2022-08-05T23:50:04.083Z,24.20
2022-08-05T23:55:11.355Z,24.20
